Skip Navigation Links Skip Navigation Links

Current Weather

Boryspil, Kiev, Ukraine

For information only: do not use for flight planning or navigation.
Latest weather
Observation time Saturday, September 22, 2018 6:38 PM EEST
Local time Saturday, September 22, 2018 6:58 PM EEST
Flight conditions Marginal Visual Meteorological Conditions
Winds
Wind direction variable
Winds variable from 270° to 330°
Wind speed 14 mph
Wind gusting to 43 mph
Visibility 6.2 mi.
Present weather WS
Sky condition
Ceiling 2,500 ft. broken clouds with cumulonimbus
Cloud layer broken clouds with cumulonimbus 2,500 ft.
Sky clear
Temperature 72°F
Dewpoint 55°F
Altimeter 29.88 in.Hg
Derived measurements
Relative humidity 57%
Density altitude 1615 ft.
Remarks
Special weather observation.
Ceiling and visibility OK.
METAR SPUR31 KWBC 221544 SPECI UKKK 221538Z 31008MPS 270V330 CAVOK 22/13 Q1012 WS R26 R26/70D TEMPO VRB12G19MPS BKN025CB

Settings

Location code

InnerDrive.Weather 4.0.6770.0 Release CLR 4.0.30319.42000
Copyright ©2018 Inner Drive Technology. All rights reserved. Portions Copyright ©1986-2018 David Braverman.

Find weather

Site navigation


Skip Navigation Links

Place info

Page info

PayPal - The safer, easier way to pay online!

Return home.

Copyright ©2018 Inner Drive Technology. Purveyors of fine, hand-crafted computer software. Page printed 2018-09-22T15:58:12 UTC.